createdAt,value
2018-02-21T00:01:05.555Z,20.10
2018-02-21T00:03:33.514Z,18.50
2018-02-21T00:06:01.528Z,17.85
2018-02-21T00:08:29.463Z,18.35
2018-02-21T00:10:57.496Z,20.10
2018-02-21T00:13:25.516Z,17.20
2018-02-21T00:15:53.478Z,17.83
2018-02-21T00:18:21.444Z,17.30
2018-02-21T00:20:49.411Z,17.40
2018-02-21T00:23:17.375Z,17.70
2018-02-21T00:25:45.355Z,17.47
2018-02-21T00:28:13.383Z,17.17
2018-02-21T00:30:41.410Z,16.67
2018-02-21T00:33:09.303Z,17.67
2018-02-21T00:35:37.244Z,18.83
2018-02-21T00:38:05.201Z,17.50
2018-02-21T00:40:33.234Z,17.40
2018-02-21T00:43:01.183Z,19.07
2018-02-21T00:45:29.970Z,18.73
2018-02-21T00:47:58.451Z,16.27
2018-02-21T00:50:27.748Z,18.53
2018-02-21T00:52:55.721Z,17.70
2018-02-21T00:55:23.652Z,19.30
2018-02-21T00:57:51.597Z,18.00
2018-02-21T01:00:19.532Z,16.60
2018-02-21T01:02:47.517Z,18.60
2018-02-21T01:05:15.530Z,17.27
2018-02-21T01:07:43.539Z,16.30
2018-02-21T01:10:11.456Z,14.77
2018-02-21T01:12:39.394Z,16.57
2018-02-21T01:15:07.451Z,17.00
2018-02-21T01:17:35.417Z,15.23
2018-02-21T01:20:03.357Z,15.83
2018-02-21T01:22:31.315Z,16.30
2018-02-21T01:24:59.283Z,17.50
2018-02-21T01:27:27.253Z,15.87
2018-02-21T01:29:55.225Z,17.00
2018-02-21T01:32:23.173Z,16.80
2018-02-21T01:34:51.102Z,16.47
2018-02-21T01:37:19.039Z,15.23
2018-02-21T01:39:46.997Z,15.63
2018-02-21T01:42:14.988Z,17.10
2018-02-21T01:44:42.931Z,15.70
2018-02-21T01:47:10.849Z,16.47
2018-02-21T01:49:38.799Z,16.43
2018-02-21T01:52:06.829Z,15.60
2018-02-21T01:57:08.161Z,18.30
2018-02-21T01:59:36.131Z,17.60
2018-02-21T02:02:04.071Z,17.40
2018-02-21T02:04:32.018Z,17.12
2018-02-21T02:07:00.073Z,15.30
2018-02-21T02:09:28.059Z,16.07
2018-02-21T02:11:56.027Z,14.93
2018-02-21T02:14:24.009Z,17.60
2018-02-21T02:16:51.962Z,17.60
2018-02-21T02:19:19.877Z,15.80
2018-02-21T02:21:47.954Z,17.27
2018-02-21T02:24:15.875Z,17.30
2018-02-21T02:26:43.789Z,18.20
2018-02-21T02:29:11.732Z,16.20
2018-02-21T02:31:39.650Z,15.47
2018-02-21T02:34:07.622Z,15.00
2018-02-21T02:36:35.640Z,16.67
2018-02-21T02:39:15.326Z,14.90
2018-02-21T02:41:43.277Z,16.97
2018-02-21T02:44:11.224Z,15.63
2018-02-21T02:46:39.158Z,16.73
2018-02-21T02:49:07.166Z,17.20
2018-02-21T02:51:35.132Z,17.00
2018-02-21T02:54:03.102Z,16.33
2018-02-21T02:56:31.043Z,16.10
2018-02-21T02:58:59.066Z,17.97
2018-02-21T03:01:26.991Z,17.07
2018-02-21T03:03:54.961Z,16.43
2018-02-21T03:06:22.914Z,16.83
2018-02-21T03:08:50.880Z,17.77
2018-02-21T03:11:18.833Z,16.80
2018-02-21T03:13:46.816Z,18.13
2018-02-21T03:16:14.788Z,20.60
2018-02-21T03:18:42.722Z,18.43
2018-02-21T03:21:10.692Z,18.67
2018-02-21T03:23:38.699Z,20.10
2018-02-21T03:26:07.071Z,18.00
2018-02-21T03:28:35.042Z,17.33
2018-02-21T03:31:03.077Z,19.33
2018-02-21T03:33:31.002Z,19.57
2018-02-21T03:35:58.973Z,18.77
2018-02-21T03:38:26.914Z,18.00
2018-02-21T03:40:55.039Z,17.83
2018-02-21T03:43:22.946Z,19.90
2018-02-21T03:45:50.872Z,18.90
2018-02-21T03:48:18.821Z,22.17
2018-02-21T03:50:46.763Z,20.37
2018-02-21T03:53:14.748Z,20.40
2018-02-21T03:55:42.705Z,20.90
2018-02-21T03:58:10.677Z,19.97
2018-02-21T04:00:38.621Z,19.30
2018-02-21T04:03:06.627Z,23.17
2018-02-21T04:05:34.583Z,21.07
2018-02-21T04:08:02.594Z,20.63
2018-02-21T04:10:30.606Z,19.43
2018-02-21T04:12:58.539Z,22.83
2018-02-21T04:15:26.561Z,20.07
2018-02-21T04:17:54.539Z,20.80
2018-02-21T04:20:22.502Z,22.13
2018-02-21T04:22:50.469Z,20.60
2018-02-21T04:25:18.438Z,21.40
2018-02-21T04:27:46.406Z,20.70
2018-02-21T04:30:14.386Z,23.33
2018-02-21T04:32:42.347Z,22.33
2018-02-21T04:35:10.359Z,22.80
2018-02-21T04:37:38.291Z,21.93
2018-02-21T04:40:06.254Z,23.60
2018-02-21T04:42:34.438Z,25.47
2018-02-21T04:45:02.426Z,22.70
2018-02-21T04:47:30.464Z,23.33
2018-02-21T04:49:58.422Z,23.73
2018-02-21T04:52:26.457Z,23.33
2018-02-21T04:55:10.274Z,26.23
2018-02-21T04:57:43.957Z,22.80
2018-02-21T05:02:52.984Z,24.17
2018-02-21T05:05:20.911Z,24.33
2018-02-21T05:07:48.881Z,24.50
2018-02-21T05:10:16.852Z,24.03
2018-02-21T05:12:44.820Z,23.23
2018-02-21T05:15:12.789Z,25.27
2018-02-21T05:17:40.698Z,24.90
2018-02-21T05:20:08.691Z,23.90
2018-02-21T05:22:36.634Z,24.83
2018-02-21T05:25:04.582Z,25.67
2018-02-21T05:27:32.538Z,25.47
2018-02-21T05:30:00.539Z,23.63
2018-02-21T05:32:28.474Z,25.50
2018-02-21T05:34:56.545Z,25.25
2018-02-21T05:37:24.513Z,26.52
2018-02-21T05:39:52.460Z,25.33
2018-02-21T05:42:20.428Z,25.48
2018-02-21T05:44:48.364Z,24.73
2018-02-21T05:47:16.328Z,25.97
2018-02-21T05:49:44.256Z,25.30
2018-02-21T05:52:12.286Z,24.97
2018-02-21T05:54:40.220Z,25.93
2018-02-21T05:57:08.181Z,27.13
2018-02-21T05:59:36.136Z,26.03
2018-02-21T06:02:04.070Z,29.27
2018-02-21T06:04:32.031Z,28.90
2018-02-21T06:06:59.959Z,26.20
2018-02-21T06:09:27.913Z,24.90
2018-02-21T06:11:55.845Z,27.70
2018-02-21T06:14:23.819Z,28.20
2018-02-21T06:16:51.739Z,25.70
2018-02-21T06:19:19.690Z,26.87
2018-02-21T06:21:47.652Z,27.00
2018-02-21T06:24:15.566Z,30.43
2018-02-21T06:26:43.493Z,29.07
2018-02-21T06:29:11.531Z,28.83
2018-02-21T06:31:39.539Z,28.37
2018-02-21T06:34:07.453Z,28.40
2018-02-21T06:36:35.387Z,27.90
2018-02-21T06:39:03.322Z,27.83
2018-02-21T06:41:31.278Z,28.30
2018-02-21T06:43:59.222Z,27.03
2018-02-21T06:46:27.271Z,28.63
2018-02-21T06:48:55.186Z,26.17
2018-02-21T06:51:23.144Z,27.70
2018-02-21T06:53:51.070Z,30.77
2018-02-21T06:56:19.079Z,30.93
2018-02-21T06:58:47.096Z,34.43
2018-02-21T07:01:15.084Z,31.20
2018-02-21T07:03:43.074Z,29.73
2018-02-21T07:06:11.087Z,28.77
2018-02-21T07:08:39.075Z,24.92
2018-02-21T07:11:07.019Z,24.30
2018-02-21T07:13:34.965Z,24.90
2018-02-21T07:16:02.898Z,25.23
2018-02-21T07:18:31.048Z,26.30
2018-02-21T07:20:59.097Z,26.37
2018-02-21T07:23:27.050Z,25.23
2018-02-21T07:25:55.022Z,25.53
2018-02-21T07:28:23.080Z,24.40
2018-02-21T07:30:51.163Z,25.60
2018-02-21T07:33:19.098Z,24.90
2018-02-21T07:35:47.103Z,27.43
2018-02-21T07:38:15.071Z,28.47
2018-02-21T07:40:43.045Z,25.33
2018-02-21T07:43:11.003Z,24.63
2018-02-21T07:45:39.008Z,30.47
2018-02-21T07:48:07.014Z,29.10
2018-02-21T07:50:34.939Z,27.47
2018-02-21T07:53:02.894Z,26.87
2018-02-21T07:55:30.864Z,26.30
2018-02-21T07:57:58.803Z,27.27
2018-02-21T08:00:26.849Z,23.80
2018-02-21T08:02:54.786Z,24.37
2018-02-21T08:05:22.778Z,26.60
2018-02-21T08:07:50.754Z,23.80
2018-02-21T08:10:18.674Z,25.80
2018-02-21T08:12:46.626Z,25.07
2018-02-21T08:15:14.561Z,25.17
2018-02-21T08:17:42.497Z,25.40
2018-02-21T08:20:10.497Z,27.80
2018-02-21T08:22:38.466Z,26.30
2018-02-21T08:25:06.427Z,25.50
2018-02-21T08:27:34.374Z,27.10
2018-02-21T08:30:02.344Z,26.03
2018-02-21T08:32:30.279Z,25.83
2018-02-21T08:34:58.248Z,25.63
2018-02-21T08:37:26.214Z,26.17
2018-02-21T08:39:54.141Z,26.63
2018-02-21T08:42:22.178Z,24.40
2018-02-21T08:44:50.115Z,23.97
2018-02-21T08:47:18.106Z,92.63
2018-02-21T08:49:46.054Z,105.77
2018-02-21T08:52:14.022Z,50.47
2018-02-21T08:54:41.966Z,26.17
2018-02-21T08:57:09.914Z,27.60
2018-02-21T08:59:37.892Z,24.00
2018-02-21T09:02:05.820Z,25.70
2018-02-21T09:04:33.848Z,27.53
2018-02-21T09:07:01.780Z,26.67
2018-02-21T09:09:29.720Z,28.23
2018-02-21T09:11:57.712Z,27.80
2018-02-21T09:14:25.685Z,27.20
2018-02-21T09:16:53.603Z,27.63
2018-02-21T09:19:21.591Z,25.10
2018-02-21T09:21:49.556Z,27.10
2018-02-21T09:24:17.517Z,26.20
2018-02-21T09:26:45.466Z,25.43
2018-02-21T09:29:13.568Z,28.13
2018-02-21T09:31:41.559Z,26.40
2018-02-21T09:34:09.534Z,26.67
2018-02-21T09:36:37.487Z,26.43
2018-02-21T09:39:05.418Z,26.40
2018-02-21T09:41:33.408Z,23.67
2018-02-21T09:44:01.348Z,24.40
2018-02-21T09:46:29.329Z,25.43
2018-02-21T09:48:57.375Z,25.10
2018-02-21T09:51:25.359Z,25.47
2018-02-21T09:53:53.321Z,23.77
2018-02-21T09:56:21.279Z,22.90
2018-02-21T09:58:50.522Z,21.20
2018-02-21T10:01:18.494Z,20.60
2018-02-21T10:03:46.459Z,21.97
2018-02-21T10:06:14.412Z,20.63
2018-02-21T10:08:42.320Z,20.20
2018-02-21T10:11:10.371Z,21.53
2018-02-21T10:13:38.350Z,22.17
2018-02-21T10:16:06.341Z,22.87
2018-02-21T10:18:34.361Z,22.60
2018-02-21T10:21:02.339Z,22.87
2018-02-21T10:23:30.366Z,20.30
2018-02-21T10:25:58.390Z,22.30
2018-02-21T10:28:26.370Z,21.60
2018-02-21T10:30:54.647Z,21.17
2018-02-21T10:33:22.787Z,20.77
2018-02-21T10:35:50.814Z,22.33
2018-02-21T10:38:18.905Z,21.00
2018-02-21T10:40:46.924Z,20.30
2018-02-21T10:43:14.898Z,19.63
2018-02-21T10:45:43.670Z,15.87
2018-02-21T10:48:11.638Z,14.90
2018-02-21T10:50:39.588Z,14.53
2018-02-21T10:53:07.556Z,15.40
2018-02-21T10:55:35.568Z,15.77
2018-02-21T10:58:03.542Z,16.43
2018-02-21T11:00:37.175Z,17.17
2018-02-21T11:03:05.207Z,18.43
2018-02-21T11:05:33.224Z,17.10
2018-02-21T11:08:01.148Z,13.63
2018-02-21T11:10:29.113Z,15.60
2018-02-21T11:12:57.089Z,14.67
2018-02-21T11:15:25.091Z,15.63
2018-02-21T11:17:53.017Z,15.93
2018-02-21T11:20:21.098Z,14.97
2018-02-21T11:22:49.126Z,17.67
2018-02-21T11:25:17.189Z,16.60
2018-02-21T11:27:45.130Z,15.77
2018-02-21T11:30:13.039Z,15.93
2018-02-21T11:32:40.986Z,13.90
2018-02-21T11:35:09.058Z,13.80
2018-02-21T11:37:37.007Z,14.07
2018-02-21T11:40:05.062Z,12.20
2018-02-21T11:42:33.022Z,14.33
2018-02-21T11:45:01.033Z,13.07
2018-02-21T11:47:29.003Z,15.40
2018-02-21T11:49:56.979Z,14.80
2018-02-21T11:52:24.912Z,13.97
2018-02-21T11:54:52.879Z,12.33
2018-02-21T11:57:20.821Z,13.77
2018-02-21T11:59:48.770Z,11.57
2018-02-21T12:02:16.770Z,10.80
2018-02-21T12:04:44.776Z,10.53
2018-02-21T12:07:12.684Z,11.40
2018-02-21T12:09:40.639Z,10.77
2018-02-21T12:12:08.596Z,10.83
2018-02-21T12:14:36.552Z,10.17
2018-02-21T12:17:04.500Z,9.43
2018-02-21T12:19:32.429Z,7.93
2018-02-21T12:22:00.358Z,9.33
2018-02-21T12:24:28.300Z,7.80
2018-02-21T12:26:56.371Z,73.13
2018-02-21T12:29:24.982Z,20.30
2018-02-21T12:31:58.743Z,11.30
2018-02-21T12:34:26.657Z,7.30
2018-02-21T12:36:54.650Z,6.07
2018-02-21T12:39:28.388Z,10.30
2018-02-21T12:41:56.322Z,10.10
2018-02-21T12:44:24.337Z,69.10
2018-02-21T12:46:52.507Z,75.33
2018-02-21T12:49:20.571Z,21.80
2018-02-21T12:51:48.769Z,11.30
2018-02-21T12:54:16.805Z,10.10
2018-02-21T12:56:44.837Z,10.00
2018-02-21T12:59:12.849Z,11.33
2018-02-21T13:01:40.959Z,10.90
2018-02-21T13:04:09.035Z,11.40
2018-02-21T13:06:37.102Z,11.03
2018-02-21T13:09:05.170Z,11.53
2018-02-21T13:11:33.135Z,10.03
2018-02-21T13:14:01.152Z,10.63
2018-02-21T13:16:29.171Z,11.20
2018-02-21T13:18:57.156Z,10.90
2018-02-21T13:21:25.338Z,10.73
2018-02-21T13:23:53.402Z,10.97
2018-02-21T13:26:21.471Z,11.13
2018-02-21T13:28:49.550Z,11.80
2018-02-21T13:31:17.546Z,11.13
2018-02-21T13:33:45.573Z,10.27
2018-02-21T13:36:13.551Z,11.40
2018-02-21T13:38:41.667Z,9.83
2018-02-21T13:41:09.618Z,11.73
2018-02-21T13:43:37.589Z,10.80
2018-02-21T13:46:05.559Z,10.07
2018-02-21T13:48:33.584Z,11.60
2018-02-21T13:51:01.544Z,9.83
2018-02-21T13:53:29.543Z,9.87
2018-02-21T13:55:57.511Z,10.33
2018-02-21T13:58:25.519Z,9.90
2018-02-21T14:00:53.513Z,13.03
2018-02-21T14:03:21.606Z,10.70
2018-02-21T14:05:49.759Z,10.90
2018-02-21T14:08:17.876Z,10.77
2018-02-21T14:10:45.922Z,10.37
2018-02-21T14:13:13.897Z,10.27
2018-02-21T14:15:41.856Z,10.50
2018-02-21T14:18:09.831Z,10.63
2018-02-21T14:20:37.905Z,14.63
2018-02-21T14:23:05.851Z,11.33
2018-02-21T14:25:34.707Z,12.90
2018-02-21T14:28:03.555Z,12.70
2018-02-21T14:30:31.591Z,12.47
2018-02-21T14:32:59.675Z,11.73
2018-02-21T14:35:27.689Z,10.67
2018-02-21T14:37:55.719Z,10.20
2018-02-21T14:40:23.786Z,12.07
2018-02-21T14:42:51.760Z,11.37
2018-02-21T14:45:19.768Z,10.50
2018-02-21T14:47:47.715Z,10.77
2018-02-21T14:50:15.639Z,10.40
2018-02-21T14:52:43.610Z,9.63
2018-02-21T14:55:11.551Z,10.33
2018-02-21T14:57:39.509Z,10.30
2018-02-21T15:00:07.494Z,10.40
2018-02-21T15:02:35.435Z,11.37
2018-02-21T15:05:03.444Z,10.90
2018-02-21T15:07:31.407Z,10.00
2018-02-21T15:09:59.373Z,9.77
2018-02-21T15:12:27.290Z,8.50
2018-02-21T15:14:55.233Z,9.37
2018-02-21T15:17:23.224Z,9.73
2018-02-21T15:19:51.171Z,9.07
2018-02-21T15:22:19.127Z,8.83
2018-02-21T15:24:47.075Z,8.17
2018-02-21T15:27:15.036Z,9.50
2018-02-21T15:29:42.989Z,10.13
2018-02-21T15:32:10.962Z,10.70
2018-02-21T15:34:39.069Z,9.90
2018-02-21T15:37:06.980Z,10.00
2018-02-21T15:39:35.050Z,10.10
2018-02-21T15:42:03.076Z,10.70
2018-02-21T15:44:31.045Z,11.90
2018-02-21T15:46:58.999Z,9.97
2018-02-21T15:49:27.037Z,10.63
2018-02-21T15:51:55.103Z,10.10
2018-02-21T15:54:23.095Z,11.17
2018-02-21T15:56:51.081Z,9.83
2018-02-21T15:59:19.071Z,10.00
2018-02-21T16:01:47.079Z,9.70
2018-02-21T16:04:15.107Z,10.33
2018-02-21T16:06:43.080Z,9.57
2018-02-21T16:09:10.991Z,10.00
2018-02-21T16:11:38.996Z,10.53
2018-02-21T16:14:06.976Z,10.70
2018-02-21T16:16:34.959Z,10.40
2018-02-21T16:19:02.934Z,11.13
2018-02-21T16:21:30.865Z,11.37
2018-02-21T16:23:58.947Z,10.90
2018-02-21T16:26:26.906Z,12.80
2018-02-21T16:28:54.942Z,12.03
2018-02-21T16:31:22.846Z,11.83
2018-02-21T16:33:50.847Z,11.00
2018-02-21T16:36:18.767Z,12.00
2018-02-21T16:38:46.700Z,13.03
2018-02-21T16:41:14.634Z,12.13
2018-02-21T16:43:42.621Z,11.63
2018-02-21T16:46:10.548Z,12.23
2018-02-21T16:48:38.563Z,12.17
2018-02-21T16:51:06.491Z,11.70
2018-02-21T16:53:34.424Z,12.77
2018-02-21T16:56:02.416Z,12.17
2018-02-21T16:58:30.350Z,12.60
2018-02-21T17:00:58.310Z,11.90
2018-02-21T17:03:26.447Z,12.40
2018-02-21T17:05:54.395Z,12.97
2018-02-21T17:08:22.362Z,13.50
2018-02-21T17:10:50.282Z,12.50
2018-02-21T17:13:18.260Z,12.20
2018-02-21T17:15:46.190Z,12.13
2018-02-21T17:18:14.138Z,13.93
2018-02-21T17:20:42.186Z,11.80
2018-02-21T17:23:10.184Z,12.80
2018-02-21T17:25:38.141Z,13.17
2018-02-21T17:28:06.180Z,45.83
2018-02-21T17:30:34.196Z,65.53
2018-02-21T17:33:02.179Z,84.20
2018-02-21T17:35:30.187Z,64.10
2018-02-21T17:37:58.219Z,54.80
2018-02-21T17:40:26.392Z,61.60
2018-02-21T17:42:54.421Z,29.60
2018-02-21T17:45:22.442Z,15.20
2018-02-21T17:47:50.447Z,11.23
2018-02-21T17:50:18.432Z,12.63
2018-02-21T17:52:46.452Z,13.17
2018-02-21T17:55:14.395Z,12.93
2018-02-21T17:57:42.386Z,13.30
2018-02-21T18:00:10.338Z,15.23
2018-02-21T18:02:38.278Z,13.03
2018-02-21T18:05:06.270Z,13.17
2018-02-21T18:07:34.237Z,11.97
2018-02-21T18:10:02.213Z,11.43
2018-02-21T18:12:30.152Z,11.77
2018-02-21T18:14:58.067Z,11.70
2018-02-21T18:17:26.058Z,10.23
2018-02-21T18:19:54.216Z,12.40
2018-02-21T18:22:23.425Z,12.77
2018-02-21T18:24:51.432Z,13.67
2018-02-21T18:27:19.430Z,13.90
2018-02-21T18:29:47.346Z,13.10
2018-02-21T18:32:15.274Z,15.10
2018-02-21T18:34:43.220Z,16.50
2018-02-21T18:37:11.171Z,15.47
2018-02-21T18:39:39.570Z,16.17
2018-02-21T18:42:07.506Z,17.40
2018-02-21T18:44:35.531Z,17.07
2018-02-21T18:47:03.476Z,17.30
2018-02-21T18:49:31.974Z,16.40
2018-02-21T18:52:00.236Z,15.53
2018-02-21T18:54:28.987Z,15.50
2018-02-21T18:57:00.206Z,15.20
2018-02-21T18:59:28.161Z,14.03
2018-02-21T19:01:56.134Z,11.77
2018-02-21T19:04:24.606Z,15.00
2018-02-21T19:06:52.675Z,13.17
2018-02-21T19:09:21.225Z,12.80
2018-02-21T19:11:49.741Z,13.63
2018-02-21T19:14:17.764Z,14.67
2018-02-21T19:16:45.681Z,15.03
2018-02-21T19:19:13.860Z,14.00
2018-02-21T19:21:41.786Z,13.53
2018-02-21T19:24:10.211Z,13.10
2018-02-21T19:26:38.129Z,12.23
2018-02-21T19:29:06.081Z,15.30
2018-02-21T19:31:34.080Z,15.30
2018-02-21T19:34:02.830Z,15.20
2018-02-21T19:36:30.786Z,17.10
2018-02-21T19:38:58.757Z,16.37
2018-02-21T19:41:27.058Z,14.97
2018-02-21T19:43:55.067Z,17.73
2018-02-21T19:46:23.019Z,23.20
2018-02-21T19:48:50.987Z,26.97
2018-02-21T19:51:19.102Z,24.23
2018-02-21T19:53:47.030Z,21.97
2018-02-21T19:56:14.992Z,22.00
2018-02-21T19:58:43.109Z,19.80
2018-02-21T20:01:11.309Z,20.07
2018-02-21T20:03:39.272Z,20.30
2018-02-21T20:06:07.212Z,19.13
2018-02-21T20:08:36.203Z,19.80
2018-02-21T20:11:04.226Z,19.00
2018-02-21T20:13:32.246Z,19.03
2018-02-21T20:16:00.254Z,18.80
2018-02-21T20:18:28.305Z,18.67
2018-02-21T20:20:56.209Z,16.83
2018-02-21T20:23:24.226Z,17.10
2018-02-21T20:25:52.167Z,18.53
2018-02-21T20:28:20.106Z,17.20
2018-02-21T20:30:48.975Z,18.80
2018-02-21T20:33:17.161Z,17.63
2018-02-21T20:35:45.318Z,76.00
2018-02-21T20:38:13.339Z,121.03
2018-02-21T20:40:42.131Z,35.83
2018-02-21T20:43:10.056Z,18.43
2018-02-21T20:45:38.002Z,18.03
2018-02-21T20:48:05.944Z,18.60
2018-02-21T20:50:33.892Z,18.07
2018-02-21T20:53:01.964Z,18.57
2018-02-21T20:55:29.916Z,18.50
2018-02-21T20:57:58.134Z,19.13
2018-02-21T21:00:26.159Z,20.03
2018-02-21T21:02:54.142Z,19.40
2018-02-21T21:05:22.256Z,18.33
2018-02-21T21:07:50.190Z,19.20
2018-02-21T21:10:18.102Z,20.27
2018-02-21T21:12:46.102Z,19.15
2018-02-21T21:15:14.018Z,19.80
2018-02-21T21:17:41.988Z,20.85
2018-02-21T21:20:09.935Z,20.80
2018-02-21T21:22:37.909Z,20.00
2018-02-21T21:25:05.874Z,23.08
2018-02-21T21:27:33.945Z,23.47
2018-02-21T21:30:02.000Z,22.40
2018-02-21T21:32:31.294Z,21.92
2018-02-21T21:34:59.266Z,21.13
2018-02-21T21:37:27.201Z,22.90
2018-02-21T21:39:56.173Z,21.50
2018-02-21T21:42:24.163Z,21.77
2018-02-21T21:44:52.707Z,21.90
2018-02-21T21:47:20.720Z,26.93
2018-02-21T21:49:48.643Z,33.53
2018-02-21T21:52:16.705Z,43.47
2018-02-21T21:54:45.454Z,36.23
2018-02-21T21:57:13.746Z,31.07
2018-02-21T21:59:41.714Z,27.03
2018-02-21T22:02:09.701Z,22.70
2018-02-21T22:04:37.616Z,23.03
2018-02-21T22:07:05.592Z,22.47
2018-02-21T22:09:33.562Z,20.73
2018-02-21T22:12:01.489Z,22.40
2018-02-21T22:14:29.514Z,20.63
2018-02-21T22:16:57.423Z,22.00
2018-02-21T22:19:25.344Z,20.50
2018-02-21T22:21:53.313Z,19.43
2018-02-21T22:24:21.444Z,19.70
2018-02-21T22:26:49.418Z,19.77
2018-02-21T22:29:17.722Z,19.93
2018-02-21T22:31:45.704Z,20.47
2018-02-21T22:34:13.668Z,22.17
2018-02-21T22:36:41.740Z,96.30
2018-02-21T22:39:09.698Z,39.60
2018-02-21T22:41:37.715Z,44.83
2018-02-21T22:44:05.679Z,26.17
2018-02-21T22:46:33.646Z,20.55
2018-02-21T22:49:01.691Z,21.00
2018-02-21T22:51:29.700Z,21.50
2018-02-21T22:53:57.686Z,22.63
2018-02-21T22:56:25.653Z,25.90
2018-02-21T22:58:53.671Z,30.17
2018-02-21T23:01:21.640Z,25.63
2018-02-21T23:03:49.603Z,28.20
2018-02-21T23:06:17.688Z,27.17
2018-02-21T23:08:45.683Z,26.37
2018-02-21T23:11:13.630Z,22.67
2018-02-21T23:13:41.626Z,21.63
2018-02-21T23:16:10.582Z,30.03
2018-02-21T23:18:39.319Z,38.40
2018-02-21T23:21:07.246Z,42.40
2018-02-21T23:23:35.211Z,36.67
2018-02-21T23:26:03.152Z,28.43
2018-02-21T23:28:31.350Z,25.13
2018-02-21T23:30:59.394Z,24.87
2018-02-21T23:33:27.430Z,21.73
2018-02-21T23:35:55.370Z,22.00
2018-02-21T23:38:23.332Z,19.90
2018-02-21T23:40:51.364Z,18.63
2018-02-21T23:43:19.321Z,19.60
2018-02-21T23:45:47.291Z,19.53
2018-02-21T23:48:15.330Z,21.67
2018-02-21T23:50:43.319Z,20.47
2018-02-21T23:53:11.285Z,20.80
2018-02-21T23:55:39.210Z,20.27
2018-02-21T23:58:07.141Z,18.57
